Aviation Digital Data Service (ADDS)

Output produced by METARs form (0224 UTC 25 April 2014)
found at http://aviationweather.gov/adds/metars/
 
KVQQ 242351Z 2500/2524 VRB03KT P6SM SCT060 
     FM250900 00000KT 4SM BR SCT005 
     FM251300 24004KT P6SM SCT250 
     FM251500 25009KT P6SM SCT080 SCT250